sensor_id;sensor_type;location;lat;lon;timestamp;P1;durP1;ratioP1;P2;durP2;ratioP2
59756;SDS011;45631;51.962;5.974;2023-04-10T00:01:26;22.20;;;15.55;;
59756;SDS011;45631;51.962;5.974;2023-04-10T00:03:57;21.52;;;14.68;;
59756;SDS011;45631;51.962;5.974;2023-04-10T00:06:26;22.77;;;14.38;;
59756;SDS011;45631;51.962;5.974;2023-04-10T00:08:54;21.95;;;14.63;;
59756;SDS011;45631;51.962;5.974;2023-04-10T00:11:24;22.73;;;13.75;;
59756;SDS011;45631;51.962;5.974;2023-04-10T00:13:53;21.63;;;13.93;;
59756;SDS011;45631;51.962;5.974;2023-04-10T00:16:21;21.38;;;13.93;;
59756;SDS011;45631;51.962;5.974;2023-04-10T00:18:49;19.95;;;13.45;;
59756;SDS011;45631;51.962;5.974;2023-04-10T00:21:17;18.92;;;12.38;;
59756;SDS011;45631;51.962;5.974;2023-04-10T00:23:45;18.75;;;12.93;;
59756;SDS011;45631;51.962;5.974;2023-04-10T00:26:13;20.25;;;13.13;;
59756;SDS011;45631;51.962;5.974;2023-04-10T00:28:43;18.73;;;12.25;;
59756;SDS011;45631;51.962;5.974;2023-04-10T00:31:11;19.25;;;11.65;;
59756;SDS011;45631;51.962;5.974;2023-04-10T00:33:39;17.30;;;11.55;;
59756;SDS011;45631;51.962;5.974;2023-04-10T00:36:07;19.35;;;12.40;;
59756;SDS011;45631;51.962;5.974;2023-04-10T00:38:35;18.33;;;11.77;;
59756;SDS011;45631;51.962;5.974;2023-04-10T00:41:04;18.08;;;11.23;;
59756;SDS011;45631;51.962;5.974;2023-04-10T00:43:32;18.67;;;11.52;;
59756;SDS011;45631;51.962;5.974;2023-04-10T00:46:02;17.27;;;11.45;;
59756;SDS011;45631;51.962;5.974;2023-04-10T00:48:32;16.45;;;10.60;;
59756;SDS011;45631;51.962;5.974;2023-04-10T00:51:01;18.23;;;11.38;;
59756;SDS011;45631;51.962;5.974;2023-04-10T00:53:29;18.83;;;11.25;;
59756;SDS011;45631;51.962;5.974;2023-04-10T00:55:58;16.52;;;10.95;;
59756;SDS011;45631;51.962;5.974;2023-04-10T00:58:28;15.65;;;10.10;;
59756;SDS011;45631;51.962;5.974;2023-04-10T01:00:56;17.10;;;10.10;;
59756;SDS011;45631;51.962;5.974;2023-04-10T01:03:26;15.77;;;10.35;;
59756;SDS011;45631;51.962;5.974;2023-04-10T01:05:56;15.85;;;9.95;;
59756;SDS011;45631;51.962;5.974;2023-04-10T01:08:35;15.00;;;9.68;;
59756;SDS011;45631;51.962;5.974;2023-04-10T01:11:12;15.75;;;9.43;;
59756;SDS011;45631;51.962;5.974;2023-04-10T01:13:52;17.10;;;10.70;;
59756;SDS011;45631;51.962;5.974;2023-04-10T01:16:29;16.15;;;9.27;;
59756;SDS011;45631;51.962;5.974;2023-04-10T01:19:06;14.00;;;9.18;;
59756;SDS011;45631;51.962;5.974;2023-04-10T01:21:41;14.68;;;9.50;;
59756;SDS011;45631;51.962;5.974;2023-04-10T01:24:13;14.25;;;8.90;;
59756;SDS011;45631;51.962;5.974;2023-04-10T01:26:53;13.77;;;8.73;;
59756;SDS011;45631;51.962;5.974;2023-04-10T01:29:36;16.30;;;9.23;;
59756;SDS011;45631;51.962;5.974;2023-04-10T01:32:10;16.02;;;8.85;;
59756;SDS011;45631;51.962;5.974;2023-04-10T01:34:42;14.25;;;9.30;;
59756;SDS011;45631;51.962;5.974;2023-04-10T01:37:14;16.17;;;9.63;;
59756;SDS011;45631;51.962;5.974;2023-04-10T01:39:46;16.85;;;9.40;;
59756;SDS011;45631;51.962;5.974;2023-04-10T01:42:21;17.50;;;10.40;;
59756;SDS011;45631;51.962;5.974;2023-04-10T01:44:51;16.00;;;9.57;;
59756;SDS011;45631;51.962;5.974;2023-04-10T01:47:21;17.13;;;10.07;;
59756;SDS011;45631;51.962;5.974;2023-04-10T01:49:51;17.42;;;11.10;;
59756;SDS011;45631;51.962;5.974;2023-04-10T01:52:21;15.77;;;9.82;;
59756;SDS011;45631;51.962;5.974;2023-04-10T01:54:51;17.83;;;10.43;;
59756;SDS011;45631;51.962;5.974;2023-04-10T01:57:20;15.50;;;10.25;;
59756;SDS011;45631;51.962;5.974;2023-04-10T01:59:48;15.70;;;10.13;;
59756;SDS011;45631;51.962;5.974;2023-04-10T02:02:18;17.00;;;10.05;;
59756;SDS011;45631;51.962;5.974;2023-04-10T02:04:46;15.75;;;9.38;;
59756;SDS011;45631;51.962;5.974;2023-04-10T02:07:19;17.75;;;10.15;;
59756;SDS011;45631;51.962;5.974;2023-04-10T02:09:53;14.60;;;9.40;;
59756;SDS011;45631;51.962;5.974;2023-04-10T02:12:28;16.15;;;9.85;;
59756;SDS011;45631;51.962;5.974;2023-04-10T02:14:59;16.33;;;9.90;;
59756;SDS011;45631;51.962;5.974;2023-04-10T02:17:29;16.13;;;10.38;;
59756;SDS011;45631;51.962;5.974;2023-04-10T02:19:59;17.55;;;10.82;;
59756;SDS011;45631;51.962;5.974;2023-04-10T02:22:29;22.98;;;9.80;;
59756;SDS011;45631;51.962;5.974;2023-04-10T02:24:58;15.15;;;10.15;;
59756;SDS011;45631;51.962;5.974;2023-04-10T02:27:28;15.40;;;9.75;;
59756;SDS011;45631;51.962;5.974;2023-04-10T02:29:56;17.95;;;11.00;;
59756;SDS011;45631;51.962;5.974;2023-04-10T02:32:24;16.35;;;10.35;;
59756;SDS011;45631;51.962;5.974;2023-04-10T02:34:54;16.75;;;10.55;;
59756;SDS011;45631;51.962;5.974;2023-04-10T02:37:23;16.15;;;10.75;;
59756;SDS011;45631;51.962;5.974;2023-04-10T02:39:53;17.45;;;11.13;;
59756;SDS011;45631;51.962;5.974;2023-04-10T02:42:22;17.92;;;11.70;;
59756;SDS011;45631;51.962;5.974;2023-04-10T02:44:50;19.70;;;11.95;;
59756;SDS011;45631;51.962;5.974;2023-04-10T02:47:18;18.33;;;11.68;;
59756;SDS011;45631;51.962;5.974;2023-04-10T02:49:46;18.90;;;11.55;;
59756;SDS011;45631;51.962;5.974;2023-04-10T02:52:16;19.10;;;12.35;;
59756;SDS011;45631;51.962;5.974;2023-04-10T02:54:44;20.92;;;12.95;;
59756;SDS011;45631;51.962;5.974;2023-04-10T02:57:13;21.05;;;12.55;;
59756;SDS011;45631;51.962;5.974;2023-04-10T02:59:44;20.10;;;12.40;;
59756;SDS011;45631;51.962;5.974;2023-04-10T03:02:12;18.48;;;12.02;;
59756;SDS011;45631;51.962;5.974;2023-04-10T03:04:40;20.83;;;12.73;;
59756;SDS011;45631;51.962;5.974;2023-04-10T03:07:08;19.38;;;12.82;;
59756;SDS011;45631;51.962;5.974;2023-04-10T03:09:38;19.20;;;12.82;;
59756;SDS011;45631;51.962;5.974;2023-04-10T03:12:06;17.92;;;11.70;;
59756;SDS011;45631;51.962;5.974;2023-04-10T03:14:34;20.25;;;12.27;;
59756;SDS011;45631;51.962;5.974;2023-04-10T03:17:02;18.33;;;12.02;;
59756;SDS011;45631;51.962;5.974;2023-04-10T03:19:30;19.77;;;12.82;;
59756;SDS011;45631;51.962;5.974;2023-04-10T03:21:58;20.33;;;12.40;;
59756;SDS011;45631;51.962;5.974;2023-04-10T03:24:26;17.80;;;12.38;;
59756;SDS011;45631;51.962;5.974;2023-04-10T03:26:56;19.80;;;12.35;;
59756;SDS011;45631;51.962;5.974;2023-04-10T03:29:24;20.77;;;12.85;;
59756;SDS011;45631;51.962;5.974;2023-04-10T03:31:52;21.55;;;13.60;;
59756;SDS011;45631;51.962;5.974;2023-04-10T03:34:20;19.80;;;12.10;;
59756;SDS011;45631;51.962;5.974;2023-04-10T03:36:48;19.63;;;12.55;;
59756;SDS011;45631;51.962;5.974;2023-04-10T03:39:16;18.30;;;12.00;;
59756;SDS011;45631;51.962;5.974;2023-04-10T03:41:44;19.10;;;12.60;;
59756;SDS011;45631;51.962;5.974;2023-04-10T03:44:16;20.52;;;12.90;;
59756;SDS011;45631;51.962;5.974;2023-04-10T03:46:45;19.00;;;12.02;;
59756;SDS011;45631;51.962;5.974;2023-04-10T03:49:13;18.15;;;11.85;;
59756;SDS011;45631;51.962;5.974;2023-04-10T03:51:41;20.40;;;11.55;;
59756;SDS011;45631;51.962;5.974;2023-04-10T03:54:09;20.48;;;13.05;;
59756;SDS011;45631;51.962;5.974;2023-04-10T03:56:37;18.52;;;12.25;;
59756;SDS011;45631;51.962;5.974;2023-04-10T03:59:05;21.45;;;13.27;;
59756;SDS011;45631;51.962;5.974;2023-04-10T04:01:35;18.98;;;12.27;;
59756;SDS011;45631;51.962;5.974;2023-04-10T04:04:03;19.02;;;12.20;;
59756;SDS011;45631;51.962;5.974;2023-04-10T04:06:32;20.05;;;12.20;;
59756;SDS011;45631;51.962;5.974;2023-04-10T04:09:00;19.35;;;11.57;;
59756;SDS011;45631;51.962;5.974;2023-04-10T04:11:28;18.77;;;12.02;;
59756;SDS011;45631;51.962;5.974;2023-04-10T04:13:59;16.20;;;10.93;;
59756;SDS011;45631;51.962;5.974;2023-04-10T04:16:27;20.17;;;12.68;;
59756;SDS011;45631;51.962;5.974;2023-04-10T04:18:57;19.65;;;12.80;;
59756;SDS011;45631;51.962;5.974;2023-04-10T04:21:25;19.52;;;12.55;;
59756;SDS011;45631;51.962;5.974;2023-04-10T04:23:53;19.80;;;12.88;;
59756;SDS011;45631;51.962;5.974;2023-04-10T04:26:22;22.13;;;12.75;;
59756;SDS011;45631;51.962;5.974;2023-04-10T04:28:50;20.48;;;12.27;;
59756;SDS011;45631;51.962;5.974;2023-04-10T04:31:18;21.80;;;12.63;;
59756;SDS011;45631;51.962;5.974;2023-04-10T04:33:46;19.13;;;12.63;;
59756;SDS011;45631;51.962;5.974;2023-04-10T04:36:16;20.17;;;12.50;;
59756;SDS011;45631;51.962;5.974;2023-04-10T04:38:44;20.10;;;12.40;;
59756;SDS011;45631;51.962;5.974;2023-04-10T04:41:12;20.33;;;12.68;;
59756;SDS011;45631;51.962;5.974;2023-04-10T04:43:43;18.55;;;11.48;;
59756;SDS011;45631;51.962;5.974;2023-04-10T04:46:12;18.88;;;11.75;;
59756;SDS011;45631;51.962;5.974;2023-04-10T04:48:41;22.23;;;12.55;;
59756;SDS011;45631;51.962;5.974;2023-04-10T04:51:11;18.27;;;11.85;;
59756;SDS011;45631;51.962;5.974;2023-04-10T04:53:41;21.70;;;12.93;;
59756;SDS011;45631;51.962;5.974;2023-04-10T04:56:09;19.77;;;12.15;;
59756;SDS011;45631;51.962;5.974;2023-04-10T04:58:37;22.45;;;12.07;;
59756;SDS011;45631;51.962;5.974;2023-04-10T05:01:06;18.75;;;12.82;;
59756;SDS011;45631;51.962;5.974;2023-04-10T05:03:34;22.08;;;13.02;;
59756;SDS011;45631;51.962;5.974;2023-04-10T05:06:03;20.08;;;12.65;;
59756;SDS011;45631;51.962;5.974;2023-04-10T05:08:31;19.92;;;11.93;;
59756;SDS011;45631;51.962;5.974;2023-04-10T05:11:01;19.95;;;11.77;;
59756;SDS011;45631;51.962;5.974;2023-04-10T05:13:29;20.27;;;12.85;;
59756;SDS011;45631;51.962;5.974;2023-04-10T05:15:57;18.88;;;12.75;;
59756;SDS011;45631;51.962;5.974;2023-04-10T05:18:25;20.60;;;12.95;;
59756;SDS011;45631;51.962;5.974;2023-04-10T05:20:53;20.23;;;12.27;;
59756;SDS011;45631;51.962;5.974;2023-04-10T05:23:21;19.40;;;11.95;;
59756;SDS011;45631;51.962;5.974;2023-04-10T05:25:49;20.17;;;12.88;;
59756;SDS011;45631;51.962;5.974;2023-04-10T05:28:22;19.73;;;12.15;;
59756;SDS011;45631;51.962;5.974;2023-04-10T05:30:50;20.73;;;12.93;;
59756;SDS011;45631;51.962;5.974;2023-04-10T05:33:18;18.23;;;11.88;;
59756;SDS011;45631;51.962;5.974;2023-04-10T05:35:46;19.38;;;11.13;;
59756;SDS011;45631;51.962;5.974;2023-04-10T05:38:14;20.85;;;13.05;;
59756;SDS011;45631;51.962;5.974;2023-04-10T05:40:43;18.95;;;12.63;;
59756;SDS011;45631;51.962;5.974;2023-04-10T05:43:12;20.83;;;12.48;;
59756;SDS011;45631;51.962;5.974;2023-04-10T05:45:43;18.98;;;11.68;;
59756;SDS011;45631;51.962;5.974;2023-04-10T05:48:12;18.63;;;11.43;;
59756;SDS011;45631;51.962;5.974;2023-04-10T05:50:40;19.35;;;10.95;;
59756;SDS011;45631;51.962;5.974;2023-04-10T05:53:11;19.08;;;11.43;;
59756;SDS011;45631;51.962;5.974;2023-04-10T05:55:40;19.88;;;12.18;;
59756;SDS011;45631;51.962;5.974;2023-04-10T05:58:09;19.30;;;12.07;;
59756;SDS011;45631;51.962;5.974;2023-04-10T06:00:37;18.73;;;11.38;;
59756;SDS011;45631;51.962;5.974;2023-04-10T06:03:06;18.75;;;12.35;;
59756;SDS011;45631;51.962;5.974;2023-04-10T06:05:35;18.42;;;11.52;;
59756;SDS011;45631;51.962;5.974;2023-04-10T06:08:03;20.15;;;11.98;;
59756;SDS011;45631;51.962;5.974;2023-04-10T06:10:31;18.90;;;11.30;;
59756;SDS011;45631;51.962;5.974;2023-04-10T06:13:00;16.85;;;11.32;;
59756;SDS011;45631;51.962;5.974;2023-04-10T06:15:28;19.48;;;11.75;;
59756;SDS011;45631;51.962;5.974;2023-04-10T06:17:56;19.17;;;11.13;;
59756;SDS011;45631;51.962;5.974;2023-04-10T06:20:25;18.38;;;11.43;;
59756;SDS011;45631;51.962;5.974;2023-04-10T06:22:54;17.92;;;11.93;;
59756;SDS011;45631;51.962;5.974;2023-04-10T06:25:22;19.15;;;12.10;;
59756;SDS011;45631;51.962;5.974;2023-04-10T06:27:50;17.77;;;11.48;;
59756;SDS011;45631;51.962;5.974;2023-04-10T06:30:20;18.13;;;10.90;;
59756;SDS011;45631;51.962;5.974;2023-04-10T06:32:48;18.00;;;11.45;;
59756;SDS011;45631;51.962;5.974;2023-04-10T06:35:16;17.08;;;11.52;;
59756;SDS011;45631;51.962;5.974;2023-04-10T06:37:46;16.83;;;11.15;;
59756;SDS011;45631;51.962;5.974;2023-04-10T06:40:14;16.20;;;10.55;;
59756;SDS011;45631;51.962;5.974;2023-04-10T06:42:42;18.63;;;11.43;;
59756;SDS011;45631;51.962;5.974;2023-04-10T06:45:10;17.40;;;10.85;;
59756;SDS011;45631;51.962;5.974;2023-04-10T06:47:38;18.20;;;11.13;;
59756;SDS011;45631;51.962;5.974;2023-04-10T06:50:07;18.90;;;11.48;;
59756;SDS011;45631;51.962;5.974;2023-04-10T06:52:35;18.23;;;11.63;;
59756;SDS011;45631;51.962;5.974;2023-04-10T06:55:05;19.40;;;11.25;;
59756;SDS011;45631;51.962;5.974;2023-04-10T06:57:34;19.02;;;11.48;;
59756;SDS011;45631;51.962;5.974;2023-04-10T07:00:02;16.42;;;10.50;;
59756;SDS011;45631;51.962;5.974;2023-04-10T07:02:30;17.08;;;11.13;;
59756;SDS011;45631;51.962;5.974;2023-04-10T07:04:59;18.15;;;10.88;;
59756;SDS011;45631;51.962;5.974;2023-04-10T07:07:27;14.98;;;10.20;;
59756;SDS011;45631;51.962;5.974;2023-04-10T07:09:55;16.92;;;11.18;;
59756;SDS011;45631;51.962;5.974;2023-04-10T07:12:25;18.35;;;11.45;;
59756;SDS011;45631;51.962;5.974;2023-04-10T07:14:56;19.85;;;10.50;;
59756;SDS011;45631;51.962;5.974;2023-04-10T07:17:24;16.23;;;9.70;;
59756;SDS011;45631;51.962;5.974;2023-04-10T07:19:52;15.90;;;10.18;;
59756;SDS011;45631;51.962;5.974;2023-04-10T07:22:21;16.42;;;9.63;;
59756;SDS011;45631;51.962;5.974;2023-04-10T07:24:49;16.42;;;9.52;;
59756;SDS011;45631;51.962;5.974;2023-04-10T07:27:17;14.98;;;9.60;;
59756;SDS011;45631;51.962;5.974;2023-04-10T07:29:51;15.98;;;9.60;;
59756;SDS011;45631;51.962;5.974;2023-04-10T07:32:20;14.60;;;10.00;;
59756;SDS011;45631;51.962;5.974;2023-04-10T07:34:49;15.65;;;9.20;;
59756;SDS011;45631;51.962;5.974;2023-04-10T07:37:17;13.77;;;8.95;;
59756;SDS011;45631;51.962;5.974;2023-04-10T07:39:45;13.85;;;9.10;;
59756;SDS011;45631;51.962;5.974;2023-04-10T07:42:13;13.73;;;8.68;;
59756;SDS011;45631;51.962;5.974;2023-04-10T07:44:42;13.38;;;8.57;;
59756;SDS011;45631;51.962;5.974;2023-04-10T07:47:11;13.43;;;8.00;;
59756;SDS011;45631;51.962;5.974;2023-04-10T07:49:39;14.20;;;9.02;;
59756;SDS011;45631;51.962;5.974;2023-04-10T07:52:10;13.32;;;8.43;;
59756;SDS011;45631;51.962;5.974;2023-04-10T07:54:38;12.77;;;7.75;;
59756;SDS011;45631;51.962;5.974;2023-04-10T07:57:06;13.82;;;8.43;;
59756;SDS011;45631;51.962;5.974;2023-04-10T07:59:34;12.57;;;8.40;;
59756;SDS011;45631;51.962;5.974;2023-04-10T08:02:02;12.80;;;8.48;;
59756;SDS011;45631;51.962;5.974;2023-04-10T08:04:32;14.07;;;8.60;;
59756;SDS011;45631;51.962;5.974;2023-04-10T08:07:01;12.70;;;8.10;;
59756;SDS011;45631;51.962;5.974;2023-04-10T08:09:32;12.82;;;8.20;;
59756;SDS011;45631;51.962;5.974;2023-04-10T08:12:00;12.05;;;7.63;;
59756;SDS011;45631;51.962;5.974;2023-04-10T08:14:31;13.45;;;8.63;;
59756;SDS011;45631;51.962;5.974;2023-04-10T08:16:59;14.00;;;8.65;;
59756;SDS011;45631;51.962;5.974;2023-04-10T08:19:28;15.23;;;7.20;;
59756;SDS011;45631;51.962;5.974;2023-04-10T08:21:57;12.48;;;7.78;;
59756;SDS011;45631;51.962;5.974;2023-04-10T08:24:25;12.40;;;8.25;;
59756;SDS011;45631;51.962;5.974;2023-04-10T08:26:53;12.40;;;7.93;;
59756;SDS011;45631;51.962;5.974;2023-04-10T08:29:21;12.55;;;8.13;;
59756;SDS011;45631;51.962;5.974;2023-04-10T08:31:54;12.70;;;8.50;;
59756;SDS011;45631;51.962;5.974;2023-04-10T08:34:26;12.48;;;7.15;;
59756;SDS011;45631;51.962;5.974;2023-04-10T08:36:54;11.27;;;7.60;;
59756;SDS011;45631;51.962;5.974;2023-04-10T08:39:26;12.43;;;7.53;;
59756;SDS011;45631;51.962;5.974;2023-04-10T08:41:54;12.68;;;7.30;;
59756;SDS011;45631;51.962;5.974;2023-04-10T08:44:23;11.13;;;7.75;;
59756;SDS011;45631;51.962;5.974;2023-04-10T08:46:51;11.93;;;7.13;;
59756;SDS011;45631;51.962;5.974;2023-04-10T08:49:22;11.57;;;7.78;;
59756;SDS011;45631;51.962;5.974;2023-04-10T08:51:53;11.20;;;6.88;;
59756;SDS011;45631;51.962;5.974;2023-04-10T08:54:25;11.82;;;7.38;;
59756;SDS011;45631;51.962;5.974;2023-04-10T08:56:56;10.48;;;7.43;;
59756;SDS011;45631;51.962;5.974;2023-04-10T08:59:29;10.65;;;6.68;;
59756;SDS011;45631;51.962;5.974;2023-04-10T09:01:58;11.52;;;7.43;;
59756;SDS011;45631;51.962;5.974;2023-04-10T09:04:26;10.65;;;6.82;;
59756;SDS011;45631;51.962;5.974;2023-04-10T09:06:54;10.43;;;6.95;;
59756;SDS011;45631;51.962;5.974;2023-04-10T09:09:22;11.27;;;7.10;;
59756;SDS011;45631;51.962;5.974;2023-04-10T09:11:59;10.65;;;6.68;;
59756;SDS011;45631;51.962;5.974;2023-04-10T09:14:30;10.57;;;6.82;;
59756;SDS011;45631;51.962;5.974;2023-04-10T09:17:12;10.60;;;7.18;;
59756;SDS011;45631;51.962;5.974;2023-04-10T09:22:10;11.30;;;6.97;;
59756;SDS011;45631;51.962;5.974;2023-04-10T09:24:39;9.55;;;6.75;;
59756;SDS011;45631;51.962;5.974;2023-04-10T09:27:10;11.57;;;7.47;;
59756;SDS011;45631;51.962;5.974;2023-04-10T09:29:54;11.60;;;7.05;;
59756;SDS011;45631;51.962;5.974;2023-04-10T09:32:35;11.30;;;6.95;;
59756;SDS011;45631;51.962;5.974;2023-04-10T09:35:06;10.13;;;6.82;;
59756;SDS011;45631;51.962;5.974;2023-04-10T09:37:35;11.63;;;7.38;;
59756;SDS011;45631;51.962;5.974;2023-04-10T09:40:04;10.63;;;6.63;;
59756;SDS011;45631;51.962;5.974;2023-04-10T09:42:47;11.80;;;7.03;;
59756;SDS011;45631;51.962;5.974;2023-04-10T09:45:15;11.48;;;6.75;;
59756;SDS011;45631;51.962;5.974;2023-04-10T09:47:58;10.18;;;7.13;;
59756;SDS011;45631;51.962;5.974;2023-04-10T09:50:32;10.45;;;6.65;;
59756;SDS011;45631;51.962;5.974;2023-04-10T09:53:05;13.98;;;7.00;;
59756;SDS011;45631;51.962;5.974;2023-04-10T09:55:33;11.00;;;6.32;;
59756;SDS011;45631;51.962;5.974;2023-04-10T09:58:04;11.02;;;6.53;;
59756;SDS011;45631;51.962;5.974;2023-04-10T10:00:34;10.85;;;6.60;;
59756;SDS011;45631;51.962;5.974;2023-04-10T10:03:07;10.98;;;6.63;;
59756;SDS011;45631;51.962;5.974;2023-04-10T10:05:40;11.10;;;6.85;;
59756;SDS011;45631;51.962;5.974;2023-04-10T10:08:10;11.15;;;6.93;;
59756;SDS011;45631;51.962;5.974;2023-04-10T10:10:40;10.73;;;6.45;;
59756;SDS011;45631;51.962;5.974;2023-04-10T10:13:15;9.60;;;5.68;;
59756;SDS011;45631;51.962;5.974;2023-04-10T10:15:51;9.70;;;5.80;;
59756;SDS011;45631;51.962;5.974;2023-04-10T10:18:26;10.27;;;6.32;;
59756;SDS011;45631;51.962;5.974;2023-04-10T10:21:01;11.02;;;6.53;;
59756;SDS011;45631;51.962;5.974;2023-04-10T10:23:34;10.40;;;6.28;;
59756;SDS011;45631;51.962;5.974;2023-04-10T10:26:07;11.35;;;6.22;;
59756;SDS011;45631;51.962;5.974;2023-04-10T10:28:38;10.07;;;5.90;;
59756;SDS011;45631;51.962;5.974;2023-04-10T10:31:08;9.75;;;6.28;;
59756;SDS011;45631;51.962;5.974;2023-04-10T10:33:37;10.07;;;6.25;;
59756;SDS011;45631;51.962;5.974;2023-04-10T10:36:07;10.85;;;6.13;;
59756;SDS011;45631;51.962;5.974;2023-04-10T10:38:37;9.27;;;5.57;;
59756;SDS011;45631;51.962;5.974;2023-04-10T10:41:11;9.10;;;5.47;;
59756;SDS011;45631;51.962;5.974;2023-04-10T10:43:46;10.38;;;5.90;;
59756;SDS011;45631;51.962;5.974;2023-04-10T10:46:22;9.55;;;5.97;;
59756;SDS011;45631;51.962;5.974;2023-04-10T10:48:59;8.82;;;5.80;;
59756;SDS011;45631;51.962;5.974;2023-04-10T10:51:43;9.65;;;5.35;;
59756;SDS011;45631;51.962;5.974;2023-04-10T10:54:29;8.00;;;5.05;;
59756;SDS011;45631;51.962;5.974;2023-04-10T10:56:58;8.23;;;4.97;;
59756;SDS011;45631;51.962;5.974;2023-04-10T11:02:23;8.13;;;5.07;;
59756;SDS011;45631;51.962;5.974;2023-04-10T11:04:52;8.93;;;4.90;;
59756;SDS011;45631;51.962;5.974;2023-04-10T11:07:39;9.40;;;5.13;;
59756;SDS011;45631;51.962;5.974;2023-04-10T11:13:28;9.20;;;5.35;;
59756;SDS011;45631;51.962;5.974;2023-04-10T11:15:58;8.10;;;4.85;;
59756;SDS011;45631;51.962;5.974;2023-04-10T11:22:01;8.23;;;5.30;;
59756;SDS011;45631;51.962;5.974;2023-04-10T11:24:50;9.02;;;5.28;;
59756;SDS011;45631;51.962;5.974;2023-04-10T11:27:38;9.25;;;5.70;;
59756;SDS011;45631;51.962;5.974;2023-04-10T11:32:59;8.98;;;5.55;;
59756;SDS011;45631;51.962;5.974;2023-04-10T11:35:28;8.52;;;5.30;;
59756;SDS011;45631;51.962;5.974;2023-04-10T11:38:10;9.02;;;5.45;;
59756;SDS011;45631;51.962;5.974;2023-04-10T11:40:52;8.18;;;5.28;;
59756;SDS011;45631;51.962;5.974;2023-04-10T11:43:21;8.68;;;5.40;;
59756;SDS011;45631;51.962;5.974;2023-04-10T11:45:49;8.35;;;4.97;;
59756;SDS011;45631;51.962;5.974;2023-04-10T11:48:27;7.95;;;4.38;;
59756;SDS011;45631;51.962;5.974;2023-04-10T11:50:56;9.40;;;4.65;;
59756;SDS011;45631;51.962;5.974;2023-04-10T11:53:27;7.63;;;4.70;;
59756;SDS011;45631;51.962;5.974;2023-04-10T11:55:55;7.43;;;4.57;;
59756;SDS011;45631;51.962;5.974;2023-04-10T11:58:24;8.27;;;4.97;;
59756;SDS011;45631;51.962;5.974;2023-04-10T12:00:57;7.70;;;4.40;;
59756;SDS011;45631;51.962;5.974;2023-04-10T12:03:37;7.55;;;4.30;;
59756;SDS011;45631;51.962;5.974;2023-04-10T12:06:07;7.30;;;4.28;;
59756;SDS011;45631;51.962;5.974;2023-04-10T12:08:37;6.32;;;3.95;;
59756;SDS011;45631;51.962;5.974;2023-04-10T12:11:09;7.43;;;4.60;;
59756;SDS011;45631;51.962;5.974;2023-04-10T12:13:38;6.43;;;4.07;;
59756;SDS011;45631;51.962;5.974;2023-04-10T12:16:07;6.72;;;4.30;;
59756;SDS011;45631;51.962;5.974;2023-04-10T12:18:37;7.05;;;4.47;;
59756;SDS011;45631;51.962;5.974;2023-04-10T12:23:37;8.15;;;4.63;;
59756;SDS011;45631;51.962;5.974;2023-04-10T12:26:07;10.55;;;4.78;;
59756;SDS011;45631;51.962;5.974;2023-04-10T12:28:38;7.10;;;3.72;;
59756;SDS011;45631;51.962;5.974;2023-04-10T12:31:07;6.72;;;3.78;;
59756;SDS011;45631;51.962;5.974;2023-04-10T12:33:35;5.15;;;3.20;;
59756;SDS011;45631;51.962;5.974;2023-04-10T12:36:06;7.00;;;3.25;;
59756;SDS011;45631;51.962;5.974;2023-04-10T12:38:47;6.00;;;3.35;;
59756;SDS011;45631;51.962;5.974;2023-04-10T12:41:19;6.35;;;3.53;;
59756;SDS011;45631;51.962;5.974;2023-04-10T12:43:50;6.22;;;3.42;;
59756;SDS011;45631;51.962;5.974;2023-04-10T12:46:22;5.18;;;2.95;;
59756;SDS011;45631;51.962;5.974;2023-04-10T12:48:54;5.93;;;3.17;;
59756;SDS011;45631;51.962;5.974;2023-04-10T12:51:40;6.15;;;3.28;;
59756;SDS011;45631;51.962;5.974;2023-04-10T12:54:09;6.18;;;3.67;;
59756;SDS011;45631;51.962;5.974;2023-04-10T12:56:40;5.65;;;3.67;;
59756;SDS011;45631;51.962;5.974;2023-04-10T12:59:09;6.28;;;3.50;;
59756;SDS011;45631;51.962;5.974;2023-04-10T13:01:38;5.60;;;3.22;;
59756;SDS011;45631;51.962;5.974;2023-04-10T13:04:07;6.85;;;3.42;;
59756;SDS011;45631;51.962;5.974;2023-04-10T13:06:41;6.28;;;3.10;;
59756;SDS011;45631;51.962;5.974;2023-04-10T13:09:10;6.60;;;3.33;;
59756;SDS011;45631;51.962;5.974;2023-04-10T13:11:39;6.55;;;3.15;;
59756;SDS011;45631;51.962;5.974;2023-04-10T13:14:09;6.45;;;3.40;;
59756;SDS011;45631;51.962;5.974;2023-04-10T13:16:38;7.47;;;3.47;;
59756;SDS011;45631;51.962;5.974;2023-04-10T13:19:08;7.28;;;3.60;;
59756;SDS011;45631;51.962;5.974;2023-04-10T13:21:36;7.03;;;3.10;;
59756;SDS011;45631;51.962;5.974;2023-04-10T13:24:04;6.55;;;3.47;;
59756;SDS011;45631;51.962;5.974;2023-04-10T13:26:32;6.63;;;3.42;;
59756;SDS011;45631;51.962;5.974;2023-04-10T13:29:00;6.55;;;3.47;;
59756;SDS011;45631;51.962;5.974;2023-04-10T13:31:28;7.88;;;3.55;;
59756;SDS011;45631;51.962;5.974;2023-04-10T13:33:56;8.32;;;3.72;;
59756;SDS011;45631;51.962;5.974;2023-04-10T13:36:26;7.03;;;3.58;;
59756;SDS011;45631;51.962;5.974;2023-04-10T13:38:54;6.63;;;3.70;;
59756;SDS011;45631;51.962;5.974;2023-04-10T13:41:22;7.20;;;3.83;;
59756;SDS011;45631;51.962;5.974;2023-04-10T13:43:50;5.90;;;3.28;;
59756;SDS011;45631;51.962;5.974;2023-04-10T13:46:19;8.27;;;3.40;;
59756;SDS011;45631;51.962;5.974;2023-04-10T13:48:47;6.50;;;3.35;;
59756;SDS011;45631;51.962;5.974;2023-04-10T13:51:15;6.13;;;3.60;;
59756;SDS011;45631;51.962;5.974;2023-04-10T13:53:45;6.68;;;3.38;;
59756;SDS011;45631;51.962;5.974;2023-04-10T13:56:13;6.43;;;3.30;;
59756;SDS011;45631;51.962;5.974;2023-04-10T13:58:41;5.82;;;3.25;;
59756;SDS011;45631;51.962;5.974;2023-04-10T14:01:11;6.40;;;3.45;;
59756;SDS011;45631;51.962;5.974;2023-04-10T14:03:40;6.40;;;3.65;;
59756;SDS011;45631;51.962;5.974;2023-04-10T14:06:09;8.68;;;4.20;;
59756;SDS011;45631;51.962;5.974;2023-04-10T14:08:37;5.90;;;3.33;;
59756;SDS011;45631;51.962;5.974;2023-04-10T14:11:06;7.00;;;3.80;;
59756;SDS011;45631;51.962;5.974;2023-04-10T14:13:35;7.25;;;3.45;;
59756;SDS011;45631;51.962;5.974;2023-04-10T14:16:03;5.70;;;3.45;;
59756;SDS011;45631;51.962;5.974;2023-04-10T14:18:31;6.40;;;3.53;;
59756;SDS011;45631;51.962;5.974;2023-04-10T14:21:00;6.90;;;4.03;;
59756;SDS011;45631;51.962;5.974;2023-04-10T14:23:28;8.32;;;3.70;;
59756;SDS011;45631;51.962;5.974;2023-04-10T14:25:56;7.72;;;4.05;;
59756;SDS011;45631;51.962;5.974;2023-04-10T14:28:26;7.95;;;3.80;;
59756;SDS011;45631;51.962;5.974;2023-04-10T14:30:54;7.80;;;3.90;;
59756;SDS011;45631;51.962;5.974;2023-04-10T14:33:22;7.85;;;3.80;;
59756;SDS011;45631;51.962;5.974;2023-04-10T14:35:51;6.00;;;3.60;;
59756;SDS011;45631;51.962;5.974;2023-04-10T14:38:20;6.15;;;3.55;;
59756;SDS011;45631;51.962;5.974;2023-04-10T14:40:48;7.07;;;3.55;;
59756;SDS011;45631;51.962;5.974;2023-04-10T14:43:16;7.60;;;3.67;;
59756;SDS011;45631;51.962;5.974;2023-04-10T14:45:46;6.22;;;3.65;;
59756;SDS011;45631;51.962;5.974;2023-04-10T14:48:14;6.90;;;3.65;;
59756;SDS011;45631;51.962;5.974;2023-04-10T14:50:45;6.53;;;3.70;;
59756;SDS011;45631;51.962;5.974;2023-04-10T14:53:13;6.68;;;3.75;;
59756;SDS011;45631;51.962;5.974;2023-04-10T14:55:41;5.68;;;3.42;;
59756;SDS011;45631;51.962;5.974;2023-04-10T14:58:09;7.55;;;3.88;;
59756;SDS011;45631;51.962;5.974;2023-04-10T15:00:37;6.05;;;3.63;;
59756;SDS011;45631;51.962;5.974;2023-04-10T15:03:07;6.05;;;3.45;;
59756;SDS011;45631;51.962;5.974;2023-04-10T15:05:35;5.63;;;3.50;;
59756;SDS011;45631;51.962;5.974;2023-04-10T15:08:04;9.27;;;3.90;;